createdAt,value
2019-01-09T00:02:25.170Z,19.37
2019-01-09T00:04:53.108Z,16.07
2019-01-09T00:07:21.030Z,17.27
2019-01-09T00:09:59.081Z,21.07
2019-01-09T00:12:27.867Z,11.97
2019-01-09T00:14:55.773Z,15.53
2019-01-09T00:17:29.947Z,12.10
2019-01-09T00:19:58.859Z,11.63
2019-01-09T00:22:27.580Z,7.20
2019-01-09T00:24:55.534Z,10.17
2019-01-09T00:27:23.513Z,9.13
2019-01-09T00:29:51.388Z,12.87
2019-01-09T00:32:20.458Z,11.30
2019-01-09T00:34:48.429Z,16.93
2019-01-09T00:37:17.764Z,18.17
2019-01-09T00:39:45.709Z,14.03
2019-01-09T00:42:14.666Z,9.93
2019-01-09T00:44:42.517Z,17.97
2019-01-09T00:47:10.364Z,7.67
2019-01-09T00:49:39.598Z,15.20
2019-01-09T00:52:07.437Z,14.63
2019-01-09T00:54:35.597Z,16.50
2019-01-09T00:57:04.584Z,16.67
2019-01-09T00:59:32.472Z,9.00
2019-01-09T01:02:09.432Z,19.27
2019-01-09T01:04:46.539Z,10.50
2019-01-09T01:07:44.007Z,13.43
2019-01-09T01:10:42.957Z,13.90
2019-01-09T01:13:37.509Z,13.83
2019-01-09T01:16:13.453Z,14.20
2019-01-09T01:18:58.908Z,10.50
2019-01-09T01:21:29.660Z,10.13
2019-01-09T01:24:31.661Z,13.30
2019-01-09T01:27:11.250Z,15.00
2019-01-09T01:30:16.316Z,11.77
2019-01-09T01:32:57.264Z,15.43
2019-01-09T01:35:42.111Z,15.73
2019-01-09T01:38:23.286Z,16.93
2019-01-09T01:41:11.509Z,20.17
2019-01-09T01:44:00.920Z,15.53
2019-01-09T01:46:47.578Z,15.60
2019-01-09T01:49:34.624Z,11.90
2019-01-09T01:52:20.628Z,16.53
2019-01-09T01:55:08.506Z,10.13
2019-01-09T01:57:59.719Z,8.73
2019-01-09T02:00:46.826Z,9.80
2019-01-09T02:03:31.310Z,7.40
2019-01-09T02:06:32.149Z,16.27
2019-01-09T02:09:18.193Z,10.27
2019-01-09T02:12:04.664Z,14.60
2019-01-09T02:14:52.813Z,7.30
2019-01-09T02:17:29.500Z,11.43
2019-01-09T02:20:46.845Z,11.67
2019-01-09T02:23:30.623Z,13.43
2019-01-09T02:26:14.517Z,25.63
2019-01-09T02:28:53.596Z,16.10
2019-01-09T02:31:57.199Z,16.07
2019-01-09T02:34:26.122Z,20.87
2019-01-09T02:36:54.075Z,22.97
2019-01-09T02:39:22.215Z,19.57
2019-01-09T02:41:50.051Z,16.00
2019-01-09T02:44:17.922Z,16.50
2019-01-09T02:46:45.844Z,17.07
2019-01-09T02:49:13.711Z,18.33
2019-01-09T02:51:41.584Z,17.40
2019-01-09T02:54:09.836Z,16.23
2019-01-09T02:56:37.705Z,22.73
2019-01-09T02:59:05.555Z,19.80
2019-01-09T03:01:34.509Z,18.07
2019-01-09T03:04:08.580Z,18.00
2019-01-09T03:06:36.450Z,17.67
2019-01-09T03:09:10.604Z,14.63
2019-01-09T03:11:38.821Z,17.77
2019-01-09T03:14:06.733Z,16.97
2019-01-09T03:16:34.670Z,21.50
2019-01-09T03:19:02.614Z,22.73
2019-01-09T03:21:30.453Z,22.93
2019-01-09T03:23:58.354Z,19.80
2019-01-09T03:26:27.526Z,17.67
2019-01-09T03:28:55.829Z,24.13
2019-01-09T03:31:23.731Z,20.03
2019-01-09T03:33:54.007Z,18.20
2019-01-09T03:36:32.374Z,22.17
2019-01-09T03:38:59.471Z,13.87
2019-01-09T03:47:24.789Z,14.70
2019-01-09T03:49:52.632Z,17.13
2019-01-09T03:52:21.404Z,15.10
2019-01-09T03:54:50.060Z,20.53
2019-01-09T03:57:17.887Z,10.70
2019-01-09T03:59:45.801Z,14.07
2019-01-09T04:02:13.593Z,16.70
2019-01-09T04:04:41.427Z,11.10
2019-01-09T04:07:09.358Z,6.73
2019-01-09T04:09:37.169Z,3.77
2019-01-09T04:12:04.978Z,5.13
2019-01-09T04:14:34.018Z,9.07
2019-01-09T04:17:01.841Z,7.70
2019-01-09T04:19:29.673Z,5.60
2019-01-09T04:21:57.529Z,7.17
2019-01-09T04:24:26.177Z,7.70
2019-01-09T04:26:54.003Z,9.97
2019-01-09T04:29:22.510Z,12.60
2019-01-09T04:31:50.371Z,13.43
2019-01-09T04:34:18.230Z,12.63
2019-01-09T04:36:51.714Z,14.53
2019-01-09T04:39:16.841Z,13.00
2019-01-09T04:41:45.070Z,18.07
2019-01-09T04:44:14.407Z,17.00
2019-01-09T04:46:43.818Z,14.77
2019-01-09T04:49:11.652Z,15.10
2019-01-09T04:51:40.376Z,17.43
2019-01-09T04:54:08.331Z,18.60
2019-01-09T04:56:36.289Z,14.73
2019-01-09T04:59:10.219Z,14.37
2019-01-09T05:01:38.110Z,16.77
2019-01-09T05:04:07.063Z,17.30
2019-01-09T05:06:36.460Z,14.53
2019-01-09T05:09:04.668Z,11.57
2019-01-09T05:11:32.918Z,13.30
2019-01-09T05:14:00.802Z,8.43
2019-01-09T05:16:34.425Z,8.73
2019-01-09T05:19:02.347Z,9.53
2019-01-09T05:21:31.248Z,7.77
2019-01-09T05:23:59.109Z,9.67
2019-01-09T05:26:27.002Z,9.43
2019-01-09T05:28:54.864Z,10.93
2019-01-09T05:31:22.760Z,13.00
2019-01-09T05:33:51.591Z,7.60
2019-01-09T05:36:20.559Z,8.20
2019-01-09T05:38:48.850Z,8.50
2019-01-09T05:41:17.755Z,10.80
2019-01-09T05:43:46.955Z,14.27
2019-01-09T05:46:15.686Z,9.00
2019-01-09T05:48:43.585Z,16.17
2019-01-09T05:51:11.464Z,16.17
2019-01-09T05:53:39.362Z,10.13
2019-01-09T05:56:08.027Z,13.97
2019-01-09T05:58:35.954Z,8.73
2019-01-09T06:01:03.804Z,10.33
2019-01-09T06:03:36.824Z,8.90
2019-01-09T06:06:09.114Z,9.77
2019-01-09T06:08:38.560Z,14.33
2019-01-09T06:11:07.860Z,9.57
2019-01-09T06:13:35.749Z,7.90
2019-01-09T06:16:06.910Z,5.30
2019-01-09T06:18:40.288Z,5.70
2019-01-09T06:21:29.111Z,5.73
2019-01-09T06:30:26.710Z,9.23
2019-01-09T06:32:54.671Z,14.00
2019-01-09T06:35:22.504Z,9.73
2019-01-09T06:37:50.370Z,6.63
2019-01-09T06:40:18.611Z,8.27
2019-01-09T06:42:46.467Z,12.40
2019-01-09T06:45:14.613Z,8.27
2019-01-09T06:47:42.538Z,10.57
2019-01-09T06:50:12.293Z,14.67
2019-01-09T06:52:40.249Z,15.63
2019-01-09T06:55:08.146Z,12.90
2019-01-09T06:57:36.036Z,20.97
2019-01-09T07:00:03.953Z,16.37
2019-01-09T07:02:31.812Z,15.37
2019-01-09T07:05:00.102Z,18.67
2019-01-09T07:07:35.818Z,23.30
2019-01-09T07:09:58.532Z,17.90
2019-01-09T07:12:26.388Z,16.27
2019-01-09T07:15:00.359Z,11.53
2019-01-09T07:17:29.084Z,17.17
2019-01-09T07:19:56.963Z,14.07
2019-01-09T07:22:24.829Z,13.33
2019-01-09T07:24:52.849Z,25.77
2019-01-09T07:27:20.702Z,18.90
2019-01-09T07:29:54.871Z,15.80
2019-01-09T07:32:22.858Z,23.40
2019-01-09T07:34:50.791Z,18.73
2019-01-09T07:41:17.525Z,21.30
2019-01-09T08:28:11.727Z,18.27
2019-01-09T08:34:36.302Z,21.20
2019-01-09T08:37:04.114Z,22.53
2019-01-09T08:39:33.002Z,19.10
2019-01-09T08:42:02.781Z,21.13
2019-01-09T08:44:30.704Z,24.50
2019-01-09T08:46:58.601Z,23.30
2019-01-09T08:50:03.250Z,20.40
2019-01-09T08:52:32.820Z,22.90
2019-01-09T08:55:01.868Z,19.43
2019-01-09T08:57:37.987Z,20.97
2019-01-09T09:00:06.573Z,27.73
2019-01-09T09:02:39.115Z,23.10
2019-01-09T09:05:08.151Z,18.83
2019-01-09T09:11:13.061Z,19.87
2019-01-09T09:21:21.219Z,23.07
2019-01-09T09:24:10.869Z,30.40
2019-01-09T09:26:47.745Z,17.67
2019-01-09T09:29:24.995Z,20.87
2019-01-09T09:32:02.149Z,20.53
2019-01-09T09:34:31.996Z,23.20
2019-01-09T09:36:59.890Z,17.43
2019-01-09T09:39:28.822Z,22.73
2019-01-09T09:42:03.701Z,17.40
2019-01-09T09:44:32.239Z,16.17
2019-01-09T09:47:06.393Z,16.63
2019-01-09T09:49:34.356Z,17.77
2019-01-09T09:52:02.203Z,24.63
2019-01-09T09:54:31.800Z,22.07
2019-01-09T09:56:59.719Z,23.47
2019-01-09T09:59:28.336Z,21.33
2019-01-09T10:01:57.285Z,23.97
2019-01-09T10:04:25.163Z,13.33
2019-01-09T10:07:01.068Z,22.60
2019-01-09T10:09:33.651Z,14.70
2019-01-09T10:12:15.856Z,23.03
2019-01-09T10:14:44.236Z,19.17
2019-01-09T10:17:12.120Z,17.07
2019-01-09T10:19:41.295Z,22.13
2019-01-09T10:22:29.866Z,21.80
2019-01-09T10:25:16.796Z,13.77
2019-01-09T10:27:54.551Z,17.50
2019-01-09T10:31:05.956Z,16.03
2019-01-09T10:33:35.762Z,18.90
2019-01-09T10:36:06.694Z,11.80
2019-01-09T10:38:45.530Z,17.90
2019-01-09T10:41:29.075Z,17.07
2019-01-09T10:43:58.535Z,17.50
2019-01-09T10:46:51.470Z,18.63
2019-01-09T10:49:25.812Z,14.60
2019-01-09T10:51:58.964Z,13.50
2019-01-09T10:54:28.952Z,20.87
2019-01-09T10:56:56.808Z,13.87
2019-01-09T10:59:30.480Z,13.70
2019-01-09T11:01:58.418Z,14.53
2019-01-09T11:04:26.767Z,19.57
2019-01-09T11:06:54.881Z,14.13
2019-01-09T11:09:23.274Z,21.53
2019-01-09T11:11:51.371Z,19.17
2019-01-09T11:14:19.302Z,14.93
2019-01-09T11:17:08.541Z,18.73
2019-01-09T11:19:36.675Z,16.43
2019-01-09T11:22:04.897Z,14.73
2019-01-09T11:24:33.479Z,13.77
2019-01-09T11:27:02.481Z,14.00
2019-01-09T11:29:30.541Z,14.53
2019-01-09T11:32:05.915Z,15.07
2019-01-09T11:34:35.725Z,14.97
2019-01-09T11:37:06.835Z,15.97
2019-01-09T11:39:34.890Z,12.93
2019-01-09T11:42:02.925Z,15.17
2019-01-09T11:44:30.883Z,13.33
2019-01-09T11:46:58.720Z,13.47
2019-01-09T11:49:26.598Z,17.67
2019-01-09T11:51:54.626Z,22.47
2019-01-09T11:54:22.434Z,18.77
2019-01-09T11:56:51.646Z,17.97
2019-01-09T11:59:19.512Z,19.33
2019-01-09T12:01:53.561Z,17.20
2019-01-09T12:04:21.485Z,17.03
2019-01-09T12:06:49.380Z,16.90
2019-01-09T12:09:23.464Z,19.93
2019-01-09T12:15:16.000Z,20.10
2019-01-09T12:17:45.982Z,12.87
2019-01-09T12:20:15.574Z,17.70
2019-01-09T12:22:43.465Z,19.97
2019-01-09T12:25:11.530Z,14.87
2019-01-09T12:27:39.394Z,16.93
2019-01-09T12:30:09.332Z,15.70
2019-01-09T12:32:37.289Z,16.10
2019-01-09T12:35:06.080Z,15.07
2019-01-09T12:37:35.054Z,15.30
2019-01-09T12:40:03.048Z,15.53
2019-01-09T12:42:31.822Z,14.07
2019-01-09T12:44:59.927Z,21.10
2019-01-09T12:47:27.765Z,18.40
2019-01-09T12:49:55.664Z,15.37
2019-01-09T12:52:23.517Z,15.43
2019-01-09T12:54:51.382Z,16.37
2019-01-09T12:57:19.621Z,14.37
2019-01-09T12:59:47.583Z,11.77
2019-01-09T13:02:16.276Z,16.17
2019-01-09T13:04:44.197Z,15.87
2019-01-09T13:07:12.169Z,10.30
2019-01-09T13:09:40.082Z,17.67
2019-01-09T13:12:08.012Z,14.57
2019-01-09T13:14:35.906Z,9.37
2019-01-09T13:17:11.590Z,11.10
2019-01-09T13:19:33.394Z,5.57
2019-01-09T13:22:01.250Z,12.97
2019-01-09T13:24:29.129Z,13.67
2019-01-09T13:26:57.100Z,14.77
2019-01-09T13:29:25.016Z,11.17
2019-01-09T13:31:54.697Z,7.70
2019-01-09T13:34:22.563Z,11.30
2019-01-09T13:36:50.425Z,12.00
2019-01-09T13:39:18.315Z,10.07
2019-01-09T13:41:46.156Z,10.07
2019-01-09T13:44:13.999Z,11.57
2019-01-09T13:46:42.089Z,13.20
2019-01-09T13:49:09.909Z,11.60
2019-01-09T13:51:37.717Z,10.90
2019-01-09T13:54:05.567Z,12.60
2019-01-09T13:56:33.392Z,14.30
2019-01-09T13:59:01.496Z,8.77
2019-01-09T14:01:29.362Z,20.17
2019-01-09T14:03:57.221Z,10.13
2019-01-09T14:06:25.038Z,10.57
2019-01-09T14:08:52.871Z,8.67
2019-01-09T14:11:20.700Z,8.27
2019-01-09T14:13:48.499Z,8.90
2019-01-09T14:16:16.359Z,9.97
2019-01-09T14:18:45.094Z,7.13
2019-01-09T14:21:12.964Z,11.30
2019-01-09T14:23:40.855Z,8.33
2019-01-09T14:26:08.670Z,11.60
2019-01-09T14:28:36.477Z,5.63
2019-01-09T14:31:04.338Z,15.13
2019-01-09T14:33:32.170Z,6.83
2019-01-09T14:36:00.051Z,9.10
2019-01-09T14:38:27.836Z,11.63
2019-01-09T14:40:55.671Z,9.90
2019-01-09T14:43:23.461Z,10.07
2019-01-09T14:45:51.296Z,12.23
2019-01-09T14:48:19.106Z,8.70
2019-01-09T14:50:47.685Z,7.30
2019-01-09T14:53:15.723Z,7.70
2019-01-09T14:55:43.558Z,6.90
2019-01-09T14:58:11.446Z,13.23
2019-01-09T15:00:39.375Z,11.00
2019-01-09T15:03:07.339Z,10.77
2019-01-09T15:05:35.160Z,9.83
2019-01-09T15:08:03.054Z,11.93
2019-01-09T15:10:31.676Z,10.13
2019-01-09T15:13:00.546Z,9.47
2019-01-09T15:15:28.408Z,12.93
2019-01-09T15:17:57.820Z,11.17
2019-01-09T15:20:25.861Z,9.03
2019-01-09T15:22:53.784Z,9.40
2019-01-09T15:25:21.670Z,9.33
2019-01-09T15:27:50.093Z,12.57
2019-01-09T15:30:22.113Z,11.93
2019-01-09T15:32:50.047Z,12.60
2019-01-09T15:35:17.981Z,7.17
2019-01-09T15:37:46.762Z,7.90
2019-01-09T15:40:18.930Z,9.37
2019-01-09T15:42:46.778Z,10.00
2019-01-09T15:45:14.685Z,11.07
2019-01-09T15:47:42.591Z,10.17
2019-01-09T15:50:11.579Z,11.13
2019-01-09T15:52:40.299Z,9.03
2019-01-09T15:55:09.162Z,14.90
2019-01-09T15:57:39.767Z,13.93
2019-01-09T16:00:10.833Z,11.73
2019-01-09T16:02:38.671Z,17.60
2019-01-09T16:05:06.591Z,17.43
2019-01-09T16:07:35.683Z,9.70
2019-01-09T16:10:03.507Z,12.13
2019-01-09T16:12:31.485Z,19.20
2019-01-09T16:14:59.503Z,17.80
2019-01-09T16:17:27.336Z,14.63
2019-01-09T16:19:55.206Z,11.40
2019-01-09T16:22:23.141Z,10.80
2019-01-09T16:24:52.701Z,11.30
2019-01-09T16:27:20.580Z,11.80
2019-01-09T16:29:48.455Z,8.73
2019-01-09T16:32:16.498Z,11.20
2019-01-09T16:34:44.341Z,10.23
2019-01-09T16:37:12.223Z,10.30
2019-01-09T16:39:41.403Z,6.67
2019-01-09T16:42:09.584Z,10.23
2019-01-09T16:44:37.602Z,12.93
2019-01-09T16:47:05.477Z,11.53
2019-01-09T16:49:33.335Z,11.73
2019-01-09T16:52:01.227Z,8.50
2019-01-09T16:54:29.119Z,10.73
2019-01-09T16:56:56.948Z,13.10
2019-01-09T16:59:24.878Z,7.70
2019-01-09T17:01:52.907Z,8.77
2019-01-09T17:04:20.809Z,14.90
2019-01-09T17:06:48.730Z,11.27
2019-01-09T17:09:16.673Z,8.83
2019-01-09T17:11:44.623Z,14.57
2019-01-09T17:14:12.723Z,10.90
2019-01-09T17:16:40.606Z,10.50
2019-01-09T17:19:08.790Z,12.13
2019-01-09T17:21:37.818Z,9.57
2019-01-09T17:24:05.698Z,9.23
2019-01-09T17:26:33.594Z,10.13
2019-01-09T17:29:01.477Z,12.83
2019-01-09T17:31:29.308Z,7.83
2019-01-09T17:33:57.217Z,14.90
2019-01-09T17:36:25.081Z,9.67
2019-01-09T17:38:54.235Z,8.97
2019-01-09T17:41:22.138Z,11.27
2019-01-09T17:43:49.990Z,7.87
2019-01-09T17:46:18.289Z,13.73
2019-01-09T17:48:46.224Z,11.47
2019-01-09T17:51:14.289Z,9.20
2019-01-09T17:53:42.421Z,10.07
2019-01-09T17:56:10.356Z,11.10
2019-01-09T17:58:38.284Z,13.20
2019-01-09T18:01:06.348Z,14.00
2019-01-09T18:03:34.579Z,14.33
2019-01-09T18:06:03.241Z,15.83
2019-01-09T18:08:31.216Z,13.43
2019-01-09T18:10:59.107Z,18.90
2019-01-09T18:13:27.043Z,14.17
2019-01-09T18:15:54.985Z,13.93
2019-01-09T18:18:22.917Z,15.50
2019-01-09T18:20:50.827Z,13.53
2019-01-09T18:23:18.744Z,9.87
2019-01-09T18:25:46.589Z,11.50
2019-01-09T18:28:14.782Z,10.80
2019-01-09T18:30:47.769Z,20.30
2019-01-09T18:33:20.903Z,9.87
2019-01-09T18:35:54.593Z,13.17
2019-01-09T18:38:33.642Z,19.27
2019-01-09T18:41:11.148Z,10.77
2019-01-09T18:43:52.225Z,15.33
2019-01-09T18:46:25.039Z,11.57
2019-01-09T18:49:10.920Z,13.27
2019-01-09T18:51:48.984Z,14.03
2019-01-09T18:54:16.944Z,11.57
2019-01-09T18:56:44.839Z,14.80
2019-01-09T18:59:12.897Z,11.80
2019-01-09T19:01:40.810Z,16.00
2019-01-09T19:04:08.802Z,12.87
2019-01-09T19:06:36.945Z,18.93
2019-01-09T19:09:07.378Z,13.83
2019-01-09T19:11:35.615Z,20.93
2019-01-09T19:14:03.662Z,15.63
2019-01-09T19:16:31.598Z,11.23
2019-01-09T19:19:00.440Z,15.00
2019-01-09T19:21:28.391Z,13.10
2019-01-09T19:23:57.635Z,14.23
2019-01-09T19:26:25.647Z,13.33
2019-01-09T19:28:53.537Z,9.87
2019-01-09T19:31:21.516Z,11.83
2019-01-09T19:33:49.402Z,15.37
2019-01-09T19:36:17.388Z,12.13
2019-01-09T19:38:45.273Z,7.70
2019-01-09T19:41:17.123Z,9.47
2019-01-09T19:43:42.772Z,12.70
2019-01-09T19:46:11.736Z,10.17
2019-01-09T19:48:39.593Z,8.33
2019-01-09T19:51:17.108Z,11.23
2019-01-09T19:53:38.194Z,10.70
2019-01-09T19:56:06.230Z,14.23
2019-01-09T19:58:34.083Z,13.13
2019-01-09T20:01:01.998Z,11.33
2019-01-09T20:03:29.866Z,6.37
2019-01-09T20:05:57.825Z,10.83
2019-01-09T20:08:25.681Z,11.67
2019-01-09T20:10:53.625Z,11.63
2019-01-09T20:13:21.552Z,7.33
2019-01-09T20:15:49.473Z,9.43
2019-01-09T20:18:17.364Z,9.57
2019-01-09T20:20:45.285Z,9.90
2019-01-09T20:23:13.163Z,8.10
2019-01-09T20:25:41.020Z,9.33
2019-01-09T20:28:08.963Z,9.73
2019-01-09T20:30:37.071Z,9.77
2019-01-09T20:33:04.998Z,8.07
2019-01-09T20:35:32.949Z,8.23
2019-01-09T20:38:02.247Z,12.47
2019-01-09T20:40:30.813Z,10.90
2019-01-09T20:42:58.956Z,6.90
2019-01-09T20:45:26.823Z,8.33
2019-01-09T20:47:54.752Z,8.93
2019-01-09T20:50:23.830Z,13.13
2019-01-09T20:52:51.921Z,10.20
2019-01-09T20:55:19.827Z,13.37
2019-01-09T20:57:47.664Z,14.23
2019-01-09T21:00:20.215Z,8.73
2019-01-09T21:02:48.119Z,10.93
2019-01-09T21:05:17.680Z,12.20
2019-01-09T21:07:45.557Z,7.80
2019-01-09T21:10:13.516Z,12.87
2019-01-09T21:12:42.408Z,12.20
2019-01-09T21:15:11.082Z,6.93
2019-01-09T21:17:38.944Z,9.03
2019-01-09T21:20:07.760Z,11.97
2019-01-09T21:22:35.627Z,14.67
2019-01-09T21:25:03.688Z,8.97
2019-01-09T21:27:42.066Z,11.93
2019-01-09T21:30:04.346Z,8.70
2019-01-09T21:32:32.644Z,12.27
2019-01-09T21:35:00.676Z,9.67
2019-01-09T21:37:28.661Z,13.87
2019-01-09T21:39:56.740Z,12.33
2019-01-09T21:42:25.614Z,8.00
2019-01-09T21:44:53.536Z,9.43
2019-01-09T21:47:21.476Z,7.93
2019-01-09T21:49:49.276Z,13.43
2019-01-09T21:52:17.180Z,11.93
2019-01-09T21:54:45.008Z,14.60
2019-01-09T21:57:12.868Z,5.67
2019-01-09T21:59:40.712Z,8.90
2019-01-09T22:02:08.626Z,10.20
2019-01-09T22:04:36.487Z,12.80
2019-01-09T22:07:04.305Z,9.07
2019-01-09T22:09:32.155Z,11.57
2019-01-09T22:12:02.610Z,10.50
2019-01-09T22:14:29.561Z,11.57
2019-01-09T22:16:57.493Z,11.50
2019-01-09T22:19:25.311Z,8.07
2019-01-09T22:21:54.188Z,8.63
2019-01-09T22:24:22.060Z,12.33
2019-01-09T22:26:50.091Z,14.43
2019-01-09T22:29:17.989Z,15.10
2019-01-09T22:31:46.662Z,10.37
2019-01-09T22:34:14.452Z,10.00
2019-01-09T22:36:42.310Z,8.60
2019-01-09T22:39:11.252Z,16.07
2019-01-09T22:41:39.207Z,12.07
2019-01-09T22:44:09.029Z,14.37
2019-01-09T22:46:36.937Z,11.87
2019-01-09T22:49:07.348Z,11.43
2019-01-09T22:51:36.017Z,5.63
2019-01-09T22:54:06.957Z,13.20
2019-01-09T22:56:36.473Z,16.70
2019-01-09T22:59:05.912Z,11.60
2019-01-09T23:01:33.803Z,10.53
2019-01-09T23:04:01.594Z,7.97
2019-01-09T23:06:29.449Z,11.43
2019-01-09T23:08:57.287Z,13.83
2019-01-09T23:11:25.132Z,12.40
2019-01-09T23:13:54.141Z,10.17
2019-01-09T23:16:22.038Z,10.50
2019-01-09T23:18:49.800Z,11.73
2019-01-09T23:21:17.596Z,11.40
2019-01-09T23:23:45.405Z,16.33
2019-01-09T23:26:13.238Z,14.53
2019-01-09T23:28:41.138Z,16.00
2019-01-09T23:31:08.963Z,14.40
2019-01-09T23:33:38.381Z,16.67
2019-01-09T23:36:06.197Z,10.70
2019-01-09T23:38:34.061Z,20.33
2019-01-09T23:41:01.935Z,20.37
2019-01-09T23:43:29.706Z,23.00
2019-01-09T23:45:57.516Z,18.37
2019-01-09T23:48:25.405Z,17.33
2019-01-09T23:50:53.211Z,13.63
2019-01-09T23:53:21.383Z,11.47
2019-01-09T23:55:49.203Z,16.27
2019-01-09T23:58:17.061Z,14.60
